Khabarovsk, Russia

8:43 PM VLAT on October 21, 2014 (GMT +1100)
Novy | Change Station
CLOSE
Current Station
Airport
Location: Khabarovsk,
Elevation: 236 ft
Nearby Weather Stations

Elev 236 ft 48.52 °N, 135.17 °E | Updated 13 minutes ago

Clear
Clear
27 °F
Feels Like 16 °F
N
11
Wind Variable Wind from WSW

Today
High -- | Low -- °F
--% Chance of Precip.
Yesterday
High -- | Low -- °F
Precip. -- in
8:27 AM 6:59 PM
Waning Crescent, 6% visible
Pressure 30.09 in
Visibility -9999.0 miles
Clouds
Windchill 16 °F
Dew Point 1 °F
Humidity 34%
Rainfall 0.00 in
Snow Depth Not available.
UV Not available.
Pollen Not available.
Air Quality Not available.
Flu Activity Not available.
METAR UHHH 210930Z 25005MPS CAVOK M03/M17 Q1019 NOSIG RMK QFE758/1011 23090060

More Conditions Fewer Conditions

Pressure 30.09 in
Visibility -9999.0 miles
Clouds
Windchill 16 °F
Dew Point 1 °F
Humidity 34%
Rainfall 0.00 in
Snow Depth Not available.
UV Not available.
Pollen Not available.
Air Quality Not available.
Flu Activity Not available.
METAR UHHH 210930Z 25005MPS CAVOK M03/M17 Q1019 NOSIG RMK QFE758/1011 23090060

More Conditions Fewer Conditions

10-Day Weather Forecast

Almanac

Astronomy

Oct. 21, 2014 Rise Set
Actual Time 8:27 AM VLAT 6:59 PM VLAT
Civil Twilight 7:55 AM VLAT 7:31 PM VLAT
Nautical Twilight 7:19 AM VLAT 8:08 PM VLAT
Astronomical Twilight 6:42 AM VLAT 8:44 PM VLAT
Moon 5:23 AM VLAT 5:45 PM VLAT
Length of Visible Light 11h 36m
Length of Day
10h 32m
Tomorrow will be 3m 22s shorter.
Waning Crescent, 6% of the Moon is Illuminated
Today
Waning Crescent
Oct 23
New
Oct 30
First Quarter
Nov 6
Full
Nov 14
Last Quarter

Yesterday's Extremes

Country Highs Country Lows

Community

WunderPhotos

Upload Photos

1,763,619 photos uploaded!

Nearby

Snow Depth

Not available.

Earthquake Activity

City Distance Mag. Time & Date
No recent earthquake activity has been reported nearby.
Minimum magnitude displayed is 2.5.

Coastal Water Temperatures

Place Temperature
No Stations Reporting

Nearby Weather Stations